Time;durP1;ratioP1;P1;durP2;ratioP2;P2;SDS_P1;SDS_P2;PMS_P1;PMS_P2;Temp;Humidity;BMP_temperature;BMP_pressure;BME280_temperature;BME280_humidity;BME280_pressure;Samples;Min_cycle;Max_cycle;Signal;HPM_P1;HPM_P2
2021/04/09 00:02:16;;;;;;;0.70;0.60;;;2.90;99.90;;;3.08;100.00;8328.22;4974388;28;20192;-67
2021/04/09 00:04:43;;;;;;;1.17;1.08;;;3.10;99.90;;;3.04;100.00;4662.31;4974383;28;20677;-67
2021/04/09 00:07:12;;;;;;;0.80;0.73;;;3.00;99.90;;;2.92;100.00;1416.22;4974229;28;20707;-67
2021/04/09 00:09:39;;;;;;;0.70;0.70;;;2.90;99.90;;;2.98;100.00;1720.66;4973970;28;20678;-67
2021/04/09 00:12:08;;;;;;;0.80;0.70;;;2.90;99.90;;;3.04;100.00;-2242.59;4973564;28;20242;-67
2021/04/09 00:14:36;;;;;;;0.70;0.60;;;2.90;99.90;;;3.17;100.00;-6853.38;4974189;28;20197;-67
2021/04/09 00:17:04;;;;;;;0.73;0.70;;;3.20;99.90;;;3.23;100.00;-11078.94;4974035;28;20180;-68
2021/04/09 00:19:31;;;;;;;0.70;0.60;;;3.20;99.90;;;3.14;100.00;-14052.44;4972979;28;20251;-67
2021/04/09 00:21:58;;;;;;;0.80;0.70;;;3.20;99.90;;;3.12;100.00;-14478.56;4978056;28;20200;-67
2021/04/09 00:24:26;;;;;;;0.70;0.60;;;3.20;99.90;;;3.18;100.00;-15944.63;4978293;28;20551;-67
2021/04/09 00:26:54;;;;;;;0.70;0.60;;;3.20;99.90;;;3.20;100.00;-16026.91;4976998;28;20204;-67
2021/04/09 00:29:21;;;;;;;0.70;0.60;;;3.20;99.90;;;3.17;100.00;-15659.50;4977820;28;20173;-67
2021/04/09 00:31:49;;;;;;;0.75;0.70;;;3.10;99.90;;;3.11;100.00;-14136.25;4976802;28;20192;-68
2021/04/09 00:34:16;;;;;;;0.80;0.70;;;3.10;99.90;;;3.01;100.00;-13013.78;4957232;29;20193;-67
2021/04/09 00:36:43;;;;;;;0.70;0.60;;;3.00;99.90;;;3.28;100.00;-13747.13;4958404;28;20189;-68
2021/04/09 00:39:12;;;;;;;0.70;0.60;;;3.20;99.90;;;3.39;100.00;-17956.56;4963832;28;20224;-66
2021/04/09 00:41:40;;;;;;;0.70;0.60;;;3.30;99.90;;;3.40;100.00;-19326.63;4976131;28;20216;-67
2021/04/09 00:44:10;;;;;;;0.70;0.60;;;3.30;99.90;;;3.44;100.00;-20548.53;4976454;28;20204;-67
2021/04/09 00:46:39;;;;;;;0.70;0.70;;;3.30;99.90;;;3.34;100.00;-20772.91;4977306;28;20554;-68
2021/04/09 00:49:07;;;;;;;0.70;0.60;;;3.20;99.90;;;3.60;100.00;-20780.00;4975999;28;20204;-67
2021/04/09 00:51:36;;;;;;;0.70;0.60;;;3.40;99.90;;;3.84;100.00;-20786.72;4976192;28;20199;-68
2021/04/09 00:54:05;;;;;;;1.92;1.13;;;3.70;99.90;;;3.67;100.00;-20781.81;4976442;28;20180;-67
2021/04/09 00:56:35;;;;;;;0.70;0.60;;;3.50;99.90;;;3.67;100.00;-20781.81;4972853;28;20653;-68
2021/04/09 00:59:03;;;;;;;0.70;0.60;;;3.60;99.90;;;3.76;100.00;-20784.47;4972867;28;20193;-67
2021/04/09 01:01:31;;;;;;;0.70;0.60;;;3.70;99.90;;;3.62;100.00;-20780.72;4958078;28;20215;-67
2021/04/09 01:04:00;;;;;;;0.70;0.60;;;3.60;99.90;;;3.52;100.00;-20777.78;5005850;28;20200;-67
2021/04/09 01:06:28;;;;;;;0.70;0.70;;;3.40;99.90;;;3.59;100.00;-20779.88;4976826;28;20192;-67
2021/04/09 01:08:55;;;;;;;0.70;0.60;;;3.50;99.90;;;3.53;100.00;-20778.06;4975630;28;20279;-67
2021/04/09 01:11:23;;;;;;;0.70;0.60;;;3.40;99.90;;;3.64;100.00;-20781.13;4975265;28;20664;-67
2021/04/09 01:13:49;;;;;;;0.70;0.60;;;3.50;99.90;;;3.50;100.00;-20777.38;4976991;28;20177;-67
2021/04/09 01:16:34;;;;;;;0.70;0.60;;;3.40;99.90;;;3.63;100.00;-20780.84;4977084;28;20190;-67
2021/04/09 01:19:28;;;;;;;0.73;0.65;;;3.50;99.90;;;3.72;100.00;-20783.38;4975894;28;20195;-67
2021/04/09 01:22:03;;;;;;;0.70;0.60;;;3.60;99.90;;;3.86;100.00;-20787.13;4976628;28;20279;-67
2021/04/09 01:25:04;;;;;;;0.70;0.60;;;3.70;99.90;;;3.98;100.00;-20790.34;4975394;28;20180;-67
2021/04/09 01:28:04;;;;;;;0.70;0.60;;;3.80;99.90;;;4.20;100.00;-20796.31;4976132;28;20218;-69
2021/04/09 01:31:20;;;;;;;0.70;0.70;;;3.90;99.90;;;4.18;100.00;-20795.78;4969572;28;20647;-67
2021/04/09 01:33:53;;;;;;;0.70;0.70;;;3.90;99.90;;;4.15;100.00;-20795.06;4976270;28;20196;-69
2021/04/09 01:36:28;;;;;;;0.70;0.60;;;3.90;99.90;;;4.24;100.00;-20797.59;4976203;28;20700;-68
2021/04/09 01:39:05;;;;;;;0.70;0.60;;;4.00;99.90;;;4.05;100.00;-20792.28;4975887;28;20184;-67
2021/04/09 01:41:37;;;;;;;0.70;0.60;;;3.90;99.90;;;4.01;100.00;-20791.16;4990676;28;20283;-67
2021/04/09 01:44:07;;;;;;;0.70;0.60;;;3.90;99.90;;;4.10;100.00;-20793.69;4975311;28;20179;-69
2021/04/09 01:46:40;;;;;;;0.70;0.60;;;3.90;99.90;;;4.06;100.00;-20792.56;4989907;28;20193;-67
2021/04/09 01:49:10;;;;;;;0.70;0.60;;;3.80;99.90;;;4.08;100.00;-20793.13;4976122;28;20200;-67
2021/04/09 01:51:38;;;;;;;0.70;0.60;;;3.90;99.90;;;3.96;100.00;-20789.78;4975183;28;20188;-67
2021/04/09 01:54:08;;;;;;;0.70;0.60;;;3.80;99.90;;;4.00;100.00;-20791.03;4974812;28;20235;-67
2021/04/09 01:56:36;;;;;;;1.65;1.17;;;3.70;99.90;;;4.02;100.00;-20791.59;4975841;28;20680;-68
2021/04/09 01:59:07;;;;;;;0.70;0.60;;;3.80;99.90;;;4.04;100.00;-20792.16;4974897;28;20212;-67
2021/04/09 02:01:36;;;;;;;0.70;0.60;;;3.80;99.90;;;4.26;100.00;-20798.13;4975061;28;20215;-67
2021/04/09 02:04:05;;;;;;;0.77;0.70;;;4.00;99.90;;;4.38;100.00;-20801.34;4975522;28;20184;-68
2021/04/09 02:06:34;;;;;;;0.73;0.70;;;4.10;99.90;;;4.58;100.00;-20806.78;4967092;28;20216;-68
2021/04/09 02:09:02;;;;;;;0.85;0.85;;;4.20;99.50;;;4.71;100.00;-20810.41;4976027;28;20317;-68
2021/04/09 02:11:33;;;;;;;1.23;1.13;;;4.30;99.10;;;4.72;100.00;-20810.53;4974578;28;20188;-67
2021/04/09 02:14:02;;;;;;;0.70;0.60;;;4.40;98.90;;;4.83;100.00;-20813.59;4976001;28;20594;-68
2021/04/09 02:16:30;;;;;;;0.70;0.60;;;4.40;98.70;;;4.89;100.00;-20815.13;4976008;28;20173;-67
2021/04/09 02:18:59;;;;;;;0.70;0.70;;;4.50;98.00;;;4.97;100.00;-20817.34;4974189;28;20196;-68
2021/04/09 02:21:26;;;;;;;0.70;0.60;;;4.50;98.00;;;5.01;100.00;-20818.47;4975949;28;20192;-68
2021/04/09 02:23:53;;;;;;;1.15;1.05;;;4.50;97.60;;;4.92;100.00;-20816.09;4975850;28;20536;-68
2021/04/09 02:26:20;;;;;;;0.70;0.60;;;4.50;98.40;;;4.93;100.00;-20816.25;4975627;28;20173;-67
2021/04/09 02:28:47;;;;;;;0.70;0.60;;;4.40;98.30;;;4.91;100.00;-20815.69;4975676;28;20214;-67
2021/04/09 02:31:14;;;;;;;0.70;0.60;;;4.40;98.60;;;4.99;100.00;-20818.06;4975773;28;20753;-67
2021/04/09 02:33:42;;;;;;;0.70;0.60;;;4.50;97.30;;;4.94;100.00;-20816.53;4984820;28;20193;-68
2021/04/09 02:36:12;;;;;;;0.70;0.60;;;4.50;97.80;;;4.93;100.00;-20816.38;4975292;28;20188;-68
2021/04/09 02:38:47;;;;;;;0.80;0.70;;;4.40;97.80;;;5.00;100.00;-20818.34;4975760;28;20235;-67
2021/04/09 02:41:15;;;;;;;0.70;0.60;;;4.50;97.40;;;5.02;100.00;-20818.75;4975165;28;20506;-67
2021/04/09 02:43:43;;;;;;;0.70;0.60;;;4.40;98.20;;;4.74;100.00;-20811.22;4971366;28;20236;-67
2021/04/09 02:46:15;;;;;;;0.70;0.60;;;4.20;99.70;;;4.67;100.00;-20809.28;4972852;28;20201;-67
2021/04/09 02:48:55;;;;;;;0.70;0.70;;;4.20;99.60;;;4.70;100.00;-20809.97;4974034;28;20200;-67
2021/04/09 02:51:25;;;;;;;0.70;0.60;;;4.20;99.00;;;4.56;100.00;-20806.34;5006729;28;20548;-67
2021/04/09 02:53:56;;;;;;;0.70;0.60;;;4.10;99.90;;;4.53;100.00;-20805.38;4975296;28;20176;-67
2021/04/09 02:56:25;;;;;;;0.70;0.60;;;4.10;99.90;;;4.49;100.00;-20804.25;4974298;28;20251;-67
2021/04/09 02:58:53;;;;;;;0.70;0.60;;;4.00;99.90;;;4.48;100.00;-20804.00;4974012;28;20173;-67
2021/04/09 03:01:21;;;;;;;0.70;0.60;;;4.10;99.90;;;4.28;100.00;-20798.69;4973416;28;20239;-67
2021/04/09 03:03:49;;;;;;;0.70;0.60;;;4.00;99.90;;;4.23;100.00;-20230.06;4974506;28;20200;-68
2021/04/09 03:06:17;;;;;;;0.70;0.60;;;3.90;99.90;;;4.17;100.00;-18909.38;4975093;28;20259;-67
2021/04/09 03:08:46;;;;;;;0.70;0.60;;;3.90;99.90;;;4.15;100.00;-17574.31;4974893;28;20259;-67
2021/04/09 03:11:13;;;;;;;0.70;0.60;;;3.80;99.90;;;4.09;100.00;-17131.44;4973288;28;20216;-68
2021/04/09 03:13:40;;;;;;;0.70;0.60;;;3.70;99.90;;;4.08;100.00;-16222.88;4974706;28;20219;-68
2021/04/09 03:16:10;;;;;;;0.70;0.60;;;3.80;99.90;;;3.97;100.00;-15714.41;4973423;28;20628;-68
2021/04/09 03:18:38;;;;;;;0.70;0.65;;;3.70;99.90;;;4.04;100.00;-16142.66;4970061;28;20189;-68
2021/04/09 03:21:06;;;;;;;0.70;0.60;;;3.80;99.90;;;4.02;100.00;-15546.69;4973843;28;20196;-67
2021/04/09 03:23:33;;;;;;;0.70;0.60;;;3.80;99.90;;;4.06;100.00;-16138.09;4974878;28;20184;-67
2021/04/09 03:26:00;;;;;;;0.70;0.60;;;3.80;99.90;;;4.10;100.00;-15875.91;4974133;28;20224;-67
2021/04/09 03:28:27;;;;;;;0.80;0.70;;;3.80;99.90;;;4.11;100.00;-17121.84;4974192;28;20274;-67
2021/04/09 03:30:54;;;;;;;0.70;0.60;;;3.80;99.90;;;4.07;100.00;-17741.31;4975087;28;20535;-67
2021/04/09 03:33:24;;;;;;;0.80;0.80;;;3.80;99.90;;;3.93;100.00;-17879.38;4974746;28;20184;-67
2021/04/09 03:35:51;;;;;;;0.70;0.60;;;3.70;99.90;;;4.01;100.00;-17876.25;4973872;28;20216;-67
2021/04/09 03:38:18;;;;;;;0.70;0.60;;;3.80;99.90;;;4.01;100.00;-17447.25;4974286;28;20176;-68
2021/04/09 03:40:46;;;;;;;0.70;0.60;;;3.70;99.90;;;3.96;100.00;-16778.72;4967314;28;20216;-67
2021/04/09 03:43:14;;;;;;;0.70;0.60;;;3.70;99.90;;;3.96;100.00;-17068.97;4972969;28;20230;-67
2021/04/09 03:45:41;;;;;;;0.80;0.70;;;3.70;99.90;;;3.93;100.00;-15621.91;4974362;28;20208;-67
2021/04/09 03:48:09;;;;;;;0.70;0.60;;;3.70;99.90;;;3.87;100.00;-14920.97;4973364;28;20200;-67
2021/04/09 03:50:36;;;;;;;0.70;0.60;;;3.60;99.90;;;3.82;100.00;-13276.66;4973293;28;20196;-68
2021/04/09 03:53:04;;;;;;;0.70;0.65;;;3.60;99.90;;;3.94;100.00;-13049.88;4974223;28;20204;-67
2021/04/09 03:55:31;;;;;;;0.70;0.60;;;3.60;99.90;;;4.02;100.00;-13984.97;4978170;28;20535;-67
2021/04/09 03:57:58;;;;;;;0.80;0.68;;;3.70;99.90;;;4.05;100.00;-15847.63;4980607;28;20270;-67
2021/04/09 04:00:27;;;;;;;0.70;0.60;;;3.80;99.90;;;4.07;100.00;-17205.44;4980613;28;20682;-69
2021/04/09 04:02:54;;;;;;;0.80;0.70;;;3.70;99.90;;;4.07;100.00;-17505.53;4978567;28;20207;-68
2021/04/09 04:05:21;;;;;;;0.70;0.60;;;3.70;99.90;;;4.17;100.00;-18946.59;4980827;28;20199;-68
2021/04/09 04:07:48;;;;;;;0.70;0.60;;;3.80;99.90;;;4.16;100.00;-19595.94;4980485;28;20212;-67
2021/04/09 04:10:16;;;;;;;0.70;0.70;;;3.80;99.90;;;4.19;100.00;-20234.06;4979275;28;20246;-67
2021/04/09 04:12:44;;;;;;;0.77;0.70;;;3.80;99.90;;;4.20;100.00;-20660.59;4980629;28;20208;-67
2021/04/09 04:15:11;;;;;;;0.70;0.60;;;3.80;99.90;;;4.19;100.00;-20796.03;4980674;28;20555;-67
2021/04/09 04:17:40;;;;;;;0.80;0.70;;;3.80;99.90;;;4.19;100.00;-20796.19;4980533;28;20188;-67
2021/04/09 04:20:08;;;;;;;0.70;0.60;;;3.80;99.90;;;4.14;100.00;-20794.78;4981443;28;20200;-67
2021/04/09 04:22:35;;;;;;;0.70;0.60;;;3.80;99.90;;;4.22;100.00;-20797.03;4980652;28;20180;-67
2021/04/09 04:25:03;;;;;;;0.70;0.60;;;3.90;99.90;;;4.15;100.00;-20795.06;4980025;28;20196;-67
2021/04/09 04:27:30;;;;;;;0.70;0.60;;;3.80;99.90;;;4.11;100.00;-20793.97;4979798;28;20266;-67
2021/04/09 04:29:57;;;;;;;0.70;0.60;;;3.80;99.90;;;4.12;100.00;-20794.22;4979340;28;20203;-68
2021/04/09 04:32:24;;;;;;;0.70;0.70;;;3.80;99.90;;;4.09;100.00;-20793.41;4980722;28;20223;-67
2021/04/09 04:34:52;;;;;;;0.80;0.80;;;3.80;99.90;;;3.98;100.00;-20790.47;4979127;28;20247;-67
2021/04/09 04:37:19;;;;;;;0.70;0.70;;;3.70;99.90;;;3.95;100.00;-20789.63;4980530;28;20181;-67
2021/04/09 04:39:46;;;;;;;0.70;0.60;;;3.70;99.90;;;4.00;100.00;-20790.88;4979216;28;20199;-68
2021/04/09 04:42:13;;;;;;;0.70;0.60;;;3.70;99.90;;;3.98;100.00;-20790.34;4979359;28;20239;-68
2021/04/09 04:44:42;;;;;;;0.70;0.60;;;3.70;99.90;;;3.91;100.00;-20788.38;4978969;28;20202;-67
2021/04/09 04:47:08;;;;;;;0.70;0.60;;;3.70;99.90;;;4.02;100.00;-20791.59;4980037;28;20197;-67
2021/04/09 04:49:36;;;;;;;0.70;0.60;;;3.80;99.90;;;4.11;100.00;-20793.97;4980037;28;20208;-68
2021/04/09 04:52:03;;;;;;;0.70;0.60;;;3.80;99.90;;;4.06;100.00;-20792.56;4979264;28;20187;-67
2021/04/09 04:54:30;;;;;;;0.70;0.70;;;3.80;99.90;;;4.12;100.00;-20794.22;4979140;28;20219;-68
2021/04/09 04:56:57;;;;;;;0.70;0.60;;;3.80;99.90;;;4.16;100.00;-20795.34;4979385;28;20212;-67
2021/04/09 04:59:24;;;;;;;0.70;0.60;;;3.90;99.90;;;4.23;100.00;-20797.16;4976173;28;20196;-67
2021/04/09 05:01:53;;;;;;;0.70;0.70;;;3.90;99.90;;;4.13;100.00;-20794.50;4977045;28;20606;-68
2021/04/09 05:04:20;;;;;;;0.70;0.60;;;3.80;99.90;;;4.17;100.00;-20795.63;4966323;28;20269;-68
2021/04/09 05:06:48;;;;;;;0.70;0.60;;;3.80;99.90;;;4.31;100.00;-20799.53;4978137;28;20207;-67
2021/04/09 05:09:17;;;;;;;0.70;0.60;;;4.00;99.90;;;4.44;100.00;-20803.00;4974925;28;20216;-68
2021/04/09 05:11:43;;;;;;;0.70;0.70;;;4.00;99.90;;;4.58;100.00;-20806.78;4975420;28;20216;-69
2021/04/09 05:14:11;;;;;;;0.70;0.60;;;4.10;99.90;;;4.68;100.00;-20809.44;4976285;28;20657;-69
2021/04/09 05:16:37;;;;;;;0.70;0.70;;;4.20;99.90;;;4.76;100.00;-20811.66;4975815;28;20205;-68
2021/04/09 05:19:05;;;;;;;0.70;0.60;;;4.30;99.90;;;4.79;100.00;-20812.63;4974941;28;20195;-68
2021/04/09 05:21:32;;;;;;;0.70;0.70;;;4.30;99.90;;;4.98;100.00;-20817.78;4975179;28;20204;-68
2021/04/09 05:23:59;;;;;;;0.70;0.63;;;4.40;99.90;;;5.00;100.00;-20818.34;4975283;28;20200;-68
2021/04/09 05:26:27;;;;;;;0.70;0.60;;;4.50;99.90;;;5.15;100.00;-20822.38;4974272;28;20220;-67
2021/04/09 05:28:54;;;;;;;0.70;0.60;;;4.50;99.90;;;5.25;100.00;-20825.16;4973025;28;20215;-67
2021/04/09 05:31:21;;;;;;;0.70;0.60;;;4.70;99.90;;;5.35;100.00;-20827.66;4976180;28;20684;-68
2021/04/09 05:33:48;;;;;;;0.70;0.60;;;4.70;99.90;;;5.43;100.00;-20829.88;4971467;28;20218;-68
2021/04/09 05:36:15;;;;;;;0.80;0.73;;;4.80;99.90;;;5.58;100.00;-20834.06;4972781;28;20661;-68
2021/04/09 05:38:43;;;;;;;0.70;0.60;;;4.90;99.90;;;5.76;100.00;-20839.06;5007836;28;20270;-68
2021/04/09 05:41:10;;;;;;;0.70;0.60;;;5.10;99.50;;;5.82;100.00;-20840.75;4976678;28;20193;-67
2021/04/09 05:43:38;;;;;;;0.70;0.60;;;5.20;97.30;;;5.90;100.00;-20842.69;4975762;28;20216;-68
2021/04/09 05:46:05;;;;;;;0.70;0.60;;;5.30;96.80;;;6.00;100.00;-20845.63;4974409;28;20207;-68
2021/04/09 05:48:32;;;;;;;0.70;0.60;;;5.30;97.00;;;6.04;100.00;-20846.59;4976143;28;20212;-67
2021/04/09 05:50:59;;;;;;;0.70;0.60;;;5.30;97.20;;;6.04;100.00;-20846.59;4976940;28;20260;-67
2021/04/09 05:53:26;;;;;;;0.70;0.60;;;5.30;97.10;;;6.32;100.00;-20854.09;4976121;28;20223;-67
2021/04/09 05:55:54;;;;;;;0.70;0.60;;;5.50;96.00;;;6.40;100.00;-20856.47;4975522;28;20190;-68
2021/04/09 05:58:21;;;;;;;0.70;0.60;;;5.60;95.10;;;6.51;100.00;-20859.50;4973749;28;20304;-68
2021/04/09 06:00:49;;;;;;;0.70;0.55;;;5.60;94.90;;;6.70;100.00;-20864.50;4975411;28;20283;-68
2021/04/09 06:03:16;;;;;;;0.70;0.60;;;5.80;93.70;;;6.67;100.00;-20863.81;4976077;28;20189;-68
2021/04/09 06:05:43;;;;;;;0.75;0.65;;;5.80;93.70;;;6.88;100.00;-20869.53;4976190;28;20184;-67
2021/04/09 06:08:10;;;;;;;0.70;0.60;;;5.90;92.70;;;6.91;100.00;-20870.22;4975843;28;20204;-68
2021/04/09 06:10:37;;;;;;;0.70;0.60;;;6.00;93.10;;;7.19;100.00;-20878.00;4975953;28;20195;-68
2021/04/09 06:13:05;;;;;;;0.70;0.60;;;6.10;91.80;;;7.41;100.00;-20883.81;4975737;28;20459;-67
2021/04/09 06:15:33;;;;;;;0.70;0.60;;;6.20;91.10;;;7.47;100.00;-20885.63;4975899;28;20425;-67
2021/04/09 06:18:01;;;;;;;0.80;0.70;;;6.40;90.40;;;7.55;100.00;-20887.72;4974797;28;20440;-68
2021/04/09 06:20:28;;;;;;;0.70;0.60;;;6.50;91.20;;;7.55;100.00;-20887.72;4975615;28;20492;-68
2021/04/09 06:22:55;;;;;;;0.70;0.70;;;6.50;89.50;;;7.61;100.00;-20889.25;4974932;28;20440;-67
2021/04/09 06:25:24;;;;;;;0.70;0.60;;;6.50;88.80;;;7.54;100.00;-20887.28;4974064;28;20805;-68
2021/04/09 06:27:51;;;;;;;0.70;0.60;;;6.60;88.90;;;7.70;100.00;-20891.88;4974841;28;20805;-69
2021/04/09 06:30:20;;;;;;;0.70;0.50;;;6.60;87.70;;;7.84;100.00;-20895.47;4975355;28;20471;-68
2021/04/09 06:32:47;;;;;;;0.70;0.60;;;6.70;86.50;;;7.77;100.00;-20893.53;4972537;28;20855;-68
2021/04/09 06:35:16;;;;;;;0.70;0.60;;;6.70;85.60;;;7.73;100.00;-20892.56;4974832;28;20471;-67
2021/04/09 06:37:43;;;;;;;0.70;0.57;;;6.80;85.90;;;7.88;100.00;-20896.75;4974468;28;20797;-68
2021/04/09 06:40:13;;;;;;;0.90;0.90;;;6.80;87.40;;;8.02;100.00;-20900.34;4974182;28;20858;-68
2021/04/09 06:42:40;;;;;;;0.70;0.60;;;7.00;84.20;;;8.13;100.00;-20903.41;4975498;28;20491;-67
2021/04/09 06:45:09;;;;;;;0.70;0.60;;;7.00;84.90;;;8.27;100.00;-20907.28;4974455;28;20420;-68
2021/04/09 06:47:37;;;;;;;0.70;0.60;;;7.10;83.20;;;8.20;100.00;-20905.47;4973823;28;20930;-68
2021/04/09 06:50:06;;;;;;;0.70;0.60;;;7.10;80.90;;;8.38;100.00;-20910.19;4974363;28;20502;-67
2021/04/09 06:52:34;;;;;;;0.70;0.60;;;7.20;81.60;;;8.18;100.00;-20904.91;4974822;28;20432;-68
2021/04/09 06:55:01;;;;;;;0.70;0.50;;;7.30;80.80;;;8.33;100.00;-20908.81;4973347;28;20436;-68
2021/04/09 06:57:29;;;;;;;0.90;0.90;;;7.30;78.70;;;8.44;100.00;-20912.00;4973424;28;20456;-68
2021/04/09 07:00:03;;;;;;;0.70;0.60;;;7.40;80.50;;;8.55;100.00;-20914.91;4973291;28;20836;-67
2021/04/09 07:02:31;;;;;;;0.70;0.60;;;7.50;79.00;;;8.82;100.00;-20922.13;4973604;28;20472;-68
2021/04/09 07:04:58;;;;;;;0.90;0.90;;;7.70;76.20;;;8.87;100.00;-20923.50;4972958;28;20438;-68
2021/04/09 07:07:25;;;;;;;0.70;0.60;;;7.70;77.60;;;9.14;100.00;-20931.00;4973378;28;20441;-67
2021/04/09 07:09:53;;;;;;;0.70;0.60;;;7.80;75.40;;;9.15;100.00;-20931.28;4973464;28;20463;-68
2021/04/09 07:12:22;;;;;;;0.70;0.60;;;8.10;76.10;;;9.54;100.00;-20941.81;4974233;28;20962;-67
2021/04/09 07:14:51;;;;;;;0.70;0.60;;;8.30;73.00;;;9.73;100.00;-20946.78;4974485;28;20445;-67
2021/04/09 07:17:28;;;;;;;0.70;0.60;;;8.40;70.40;;;9.75;100.00;-20947.34;4974565;28;20500;-68
2021/04/09 07:20:18;;;;;;;0.90;0.90;;;8.60;70.40;;;10.26;100.00;-20961.31;4973360;28;20960;-68
2021/04/09 07:22:48;;;;;;;0.80;0.70;;;8.80;69.50;;;10.05;100.00;-20955.50;4973275;28;20439;-68
2021/04/09 07:25:19;;;;;;;0.80;0.60;;;8.90;69.50;;;10.08;100.00;-20956.47;4969277;28;20452;-67
2021/04/09 07:27:49;;;;;;;0.80;0.70;;;8.90;66.40;;;10.35;100.00;-20963.69;4973119;28;20558;-68
2021/04/09 07:30:24;;;;;;;3.43;1.00;;;9.10;64.60;;;10.46;100.00;-20966.72;4972822;28;20505;-69
2021/04/09 07:32:51;;;;;;;0.70;0.60;;;9.10;64.00;;;10.35;100.00;-20963.69;4971701;28;20447;-68
2021/04/09 07:35:18;;;;;;;0.70;0.60;;;9.10;65.50;;;10.03;100.00;-20955.09;4973579;28;20455;-68
2021/04/09 07:37:53;;;;;;;0.70;0.60;;;9.10;63.80;;;9.96;100.00;-20953.16;4972712;28;20442;-69
2021/04/09 07:40:25;;;;;;;0.80;0.77;;;9.20;63.20;;;10.47;100.00;-20966.84;4973819;28;20453;-68
2021/04/09 07:42:55;;;;;;;1.00;0.90;;;9.40;64.00;;;10.61;100.00;-20970.88;4967441;28;20463;-68
2021/04/09 07:45:25;;;;;;;0.80;0.70;;;9.40;62.40;;;11.41;100.00;-20992.28;4972259;28;20449;-68
2021/04/09 07:48:02;;;;;;;0.77;0.70;;;9.70;64.00;;;11.64;100.00;-20998.50;4973525;28;20439;-68
2021/04/09 07:50:40;;;;;;;0.80;0.77;;;10.30;61.60;;;11.90;100.00;-21005.69;4972907;28;20564;-68
2021/04/09 07:53:09;;;;;;;1.47;1.37;;;10.60;59.10;;;12.10;100.00;-21011.09;4974147;28;20439;-68
2021/04/09 07:55:37;;;;;;;1.00;0.90;;;10.60;56.30;;;12.45;100.00;-21020.47;4971890;28;20445;-69
2021/04/09 07:58:17;;;;;;;0.70;0.60;;;11.00;53.00;;;12.80;100.00;-21030.00;4972470;28;20559;-68
2021/04/09 08:00:46;;;;;;;0.80;0.70;;;11.50;50.50;;;12.88;100.00;-21032.19;5004968;28;20501;-69
2021/04/09 08:03:30;;;;;;;0.70;0.60;;;11.30;48.20;;;13.92;100.00;-21060.19;4973704;28;20492;-68
2021/04/09 08:06:11;;;;;;;0.70;0.60;;;11.40;46.20;;;12.94;100.00;-21033.72;4973119;28;20429;-69
2021/04/09 08:08:55;;;;;;;1.77;1.33;;;11.40;46.20;;;12.30;100.00;-21016.63;4970321;28;20822;-67
2021/04/09 08:11:27;;;;;;;0.80;0.70;;;11.20;44.10;;;12.20;100.00;-21013.84;4971113;28;20513;-68
2021/04/09 08:14:01;;;;;;;0.70;0.60;;;11.20;46.00;;;13.67;100.00;-21053.44;4972224;28;20436;-68
2021/04/09 08:16:34;;;;;;;0.70;0.70;;;11.60;45.10;;;13.47;100.00;-21048.06;4970085;28;20952;-68
2021/04/09 08:19:07;;;;;;;0.80;0.70;;;12.10;41.70;;;15.05;100.00;-21090.63;4970487;28;20489;-69
2021/04/09 08:21:37;;;;;;;0.80;0.60;;;12.70;38.70;;;14.80;100.00;-21083.88;4970442;28;20439;-68
2021/04/09 08:24:07;;;;;;;0.97;0.90;;;12.80;40.50;;;14.31;100.00;-21070.78;4972004;28;20426;-69
2021/04/09 08:26:37;;;;;;;0.87;0.70;;;12.60;37.40;;;13.97;100.00;-21061.56;4970899;28;20431;-69
2021/04/09 08:29:09;;;;;;;0.80;0.60;;;12.40;37.30;;;13.74;100.00;-21055.38;4967436;28;20832;-68
2021/04/09 08:31:38;;;;;;;0.80;0.67;;;12.20;37.00;;;13.40;100.00;-21046.28;4971622;28;20948;-68
2021/04/09 08:34:08;;;;;;;0.70;0.60;;;12.00;39.10;;;12.91;100.00;-21032.88;4972472;28;20466;-68
2021/04/09 08:36:37;;;;;;;0.70;0.60;;;11.90;38.60;;;13.48;100.00;-21048.47;4973096;28;20438;-69
2021/04/09 08:39:05;;;;;;;0.80;0.70;;;12.20;39.90;;;13.93;100.00;-21060.59;4973501;28;20438;-68
2021/04/09 08:41:33;;;;;;;0.80;0.70;;;12.40;35.60;;;14.66;100.00;-21080.28;4975367;28;20490;-68
2021/04/09 08:44:01;;;;;;;0.80;0.60;;;12.50;36.50;;;15.03;100.00;-21090.06;4976877;28;20434;-69
2021/04/09 08:46:28;;;;;;;0.70;0.60;;;12.90;36.40;;;15.22;100.00;-21095.44;4975909;28;20811;-68
2021/04/09 08:48:56;;;;;;;1.20;1.10;;;13.00;34.20;;;15.30;100.00;-21097.50;4975008;28;20450;-69
2021/04/09 08:51:24;;;;;;;0.80;0.70;;;13.20;35.40;;;15.09;100.00;-21091.72;4976239;28;20432;-68
2021/04/09 08:53:51;;;;;;;0.80;0.60;;;13.10;33.10;;;15.03;100.00;-21090.19;4975736;28;20442;-68
2021/04/09 08:56:33;;;;;;;0.80;0.70;;;13.20;30.30;;;15.00;100.00;-21089.25;4973700;28;20446;-69
2021/04/09 08:59:01;;;;;;;0.70;0.60;;;13.20;27.90;;;15.27;100.00;-21096.66;4972743;28;20485;-68
2021/04/09 09:01:29;;;;;;;0.70;0.60;;;13.10;30.30;;;15.13;100.00;-21092.81;4975632;28;20775;-68
2021/04/09 09:04:31;;;;;;;0.70;0.60;;;12.90;29.50;;;15.17;100.00;-21094.06;4973608;28;20431;-70
2021/04/09 09:06:58;;;;;;;0.80;0.60;;;13.70;30.00;;;16.00;100.00;-21116.19;4973538;28;20474;-68
2021/04/09 09:09:29;;;;;;;1.47;1.27;;;13.80;29.20;;;16.74;100.00;-21136.09;4972575;28;20900;-69
2021/04/09 09:11:57;;;;;;;0.80;0.70;;;13.40;26.50;;;15.89;100.00;-21113.44;4976498;28;20862;-69
2021/04/09 09:14:44;;;;;;;3.20;2.90;;;13.50;28.40;;;14.86;100.00;-21085.66;4974468;28;20455;-69
2021/04/09 09:17:37;;;;;;;0.70;0.60;;;13.30;27.10;;;14.63;100.00;-21079.34;4973570;28;20446;-69
2021/04/09 09:20:18;;;;;;;0.70;0.60;;;13.10;26.50;;;14.38;100.00;-21072.72;4975345;28;20449;-69
2021/04/09 09:22:56;;;;;;;0.70;0.60;;;13.00;27.90;;;14.70;100.00;-21081.25;4974262;28;20860;-68
2021/04/09 09:25:36;;;;;;;0.80;0.73;;;12.80;28.10;;;15.13;100.00;-21092.81;4975331;28;20965;-68
2021/04/09 09:28:10;;;;;;;0.70;0.60;;;13.00;27.80;;;15.08;100.00;-21091.44;4973920;28;20483;-69
2021/04/09 09:30:42;;;;;;;0.70;0.70;;;12.90;28.40;;;16.46;100.00;-21128.53;4975679;28;20463;-69
2021/04/09 09:33:27;;;;;;;0.80;0.70;;;13.40;27.70;;;17.35;100.00;-21152.69;4975886;28;20977;-69
2021/04/09 09:36:03;;;;;;;0.80;0.70;;;13.80;28.40;;;17.60;100.00;-21159.28;4975331;28;20447;-69
2021/04/09 09:38:52;;;;;;;0.80;0.60;;;14.20;28.40;;;16.79;100.00;-21137.63;4973031;28;21115;-68
2021/04/09 09:41:49;;;;;;;0.90;0.80;;;14.20;27.80;;;17.32;100.00;-21151.75;4966192;28;20917;-69
2021/04/09 09:44:41;;;;;;;0.70;0.60;;;13.90;24.80;;;16.46;100.00;-21128.53;4974268;28;20428;-69
2021/04/09 09:47:23;;;;;;;0.80;0.70;;;14.50;26.50;;;16.65;100.00;-21133.75;4973315;28;20486;-69
2021/04/09 09:50:23;;;;;;;0.70;0.60;;;13.70;26.50;;;14.87;100.00;-21085.94;4976325;28;20510;-68
2021/04/09 09:53:00;;;;;;;2.30;1.23;;;13.30;26.30;;;15.44;100.00;-21101.34;4971347;28;20407;-68
2021/04/09 09:55:31;;;;;;;0.90;0.70;;;13.50;27.90;;;15.64;100.00;-21106.69;4975873;28;20518;-68
2021/04/09 09:58:03;;;;;;;0.80;0.70;;;13.40;30.00;;;15.99;100.00;-21115.91;4975185;28;20527;-69
2021/04/09 10:00:36;;;;;;;0.70;0.60;;;13.50;29.20;;;16.13;100.00;-21119.75;4974019;28;20444;-69
2021/04/09 10:03:15;;;;;;;0.80;0.67;;;13.80;28.30;;;16.80;100.00;-21137.88;4964174;28;20434;-69
2021/04/09 10:05:45;;;;;;;0.70;0.60;;;13.70;27.70;;;16.76;100.00;-21136.66;4970634;28;20439;-69
2021/04/09 10:08:13;;;;;;;1.30;0.73;;;14.30;28.10;;;17.18;100.00;-21148.03;4974722;28;20432;-69
2021/04/09 10:10:44;;;;;;;0.90;0.90;;;14.50;26.70;;;17.99;100.00;-21169.69;4975017;28;20444;-69
2021/04/09 10:13:23;;;;;;;0.70;0.60;;;14.40;26.80;;;18.48;100.00;-21182.97;4973894;28;20471;-68
2021/04/09 10:15:52;;;;;;;0.80;0.70;;;14.80;27.00;;;18.89;100.00;-21193.94;4973311;28;20446;-70
2021/04/09 10:18:23;;;;;;;0.80;0.60;;;16.10;25.60;;;19.85;100.00;-21219.66;4974539;28;20399;-69
2021/04/09 10:20:51;;;;;;;0.80;0.70;;;16.20;22.50;;;20.73;99.47;-21243.16;4975807;28;20439;-69
2021/04/09 10:23:25;;;;;;;0.70;0.60;;;16.20;21.00;;;20.13;98.69;-21227.16;4974308;28;20432;-69
2021/04/09 10:25:53;;;;;;;0.70;0.60;;;15.80;21.20;;;17.49;100.00;-21156.25;4969619;28;20879;-69
2021/04/09 10:28:21;;;;;;;0.70;0.60;;;15.50;20.80;;;18.20;100.00;-21175.47;4965690;28;20964;-68
2021/04/09 10:30:52;;;;;;;2.00;1.87;;;15.30;21.80;;;18.46;98.58;-21182.31;4974538;28;20424;-68